Time,TemperatureF,DewpointF,PressureIn,WindDirection,WindDirectionDegrees,WindSpeedMPH,WindSpeedGustMPH,Humidity,HourlyPrecipIn,Conditions,Clouds,dailyrainin,SoftwareType,DateUTC
2013-11-16 00:01:00,44.6,29.0,17.72,NNE,30,0.0,0.0,54,0.00,,---,0.00,VWS V13.00,2013-11-16 09:01:00,
2013-11-16 00:06:00,43.7,28.6,17.72,NNE,29,0.0,0.0,55,0.00,,---,0.00,VWS V13.00,2013-11-16 09:06:00,
2013-11-16 00:11:00,43.5,28.9,17.72,North,357,0.0,4.9,56,0.00,,---,0.00,VWS V13.00,2013-11-16 09:11:00,
2013-11-16 00:16:00,43.2,29.0,17.72,NE,35,0.0,4.9,57,0.00,,---,0.00,VWS V13.00,2013-11-16 09:16:00,
2013-11-16 00:21:00,43.2,29.4,17.72,NW,311,0.0,4.0,58,0.00,,---,0.00,VWS V13.00,2013-11-16 09:21:00,
2013-11-16 00:26:00,43.0,29.2,17.72,NNW,329,0.0,4.0,58,0.00,,---,0.00,VWS V13.00,2013-11-16 09:26:00,
2013-11-16 00:31:00,43.0,29.2,17.72,NE,38,0.0,4.0,58,0.00,,---,0.00,VWS V13.00,2013-11-16 09:31:00,
2013-11-16 00:36:00,43.2,29.4,17.72,West,273,0.0,4.0,58,0.00,,---,0.00,VWS V13.00,2013-11-16 09:36:00,
2013-11-16 00:41:00,43.5,29.3,17.72,SW,233,0.0,0.0,57,0.00,,---,0.00,VWS V13.00,2013-11-16 09:41:00,
2013-11-16 00:46:00,43.7,28.6,17.72,SSE,167,0.0,0.0,55,0.00,,---,0.00,VWS V13.00,2013-11-16 09:46:00,
2013-11-16 00:51:00,43.9,28.8,17.72,SE,137,0.0,0.0,55,0.00,,---,0.00,VWS V13.00,2013-11-16 09:51:00,
2013-11-16 00:56:00,43.9,28.8,17.72,SE,137,0.0,0.0,55,0.00,,---,0.00,VWS V13.00,2013-11-16 09:56:00,
2013-11-16 01:01:00,43.9,28.8,17.72,NW,304,0.0,0.0,55,0.00,,---,0.00,VWS V13.00,2013-11-16 10:01:00,
2013-11-16 01:06:00,43.9,28.8,17.72,SSE,158,0.0,0.0,55,0.00,,---,0.00,VWS V13.00,2013-11-16 10:06:00,
2013-11-16 01:11:00,43.9,28.3,17.72,SSE,157,0.0,0.0,54,0.00,,---,0.00,VWS V13.00,2013-11-16 10:11:00,
2013-11-16 01:16:00,43.9,28.3,17.72,SSE,162,0.0,0.0,54,0.00,,---,0.00,VWS V13.00,2013-11-16 10:16:00,
2013-11-16 01:21:00,43.7,27.7,17.72,ESE,109,0.0,0.0,53,0.00,,---,0.00,VWS V13.00,2013-11-16 10:21:00,
2013-11-16 01:26:00,43.7,27.7,17.72,SSE,165,2.2,2.2,53,0.00,,---,0.00,VWS V13.00,2013-11-16 10:26:00,
2013-11-16 01:31:00,43.7,27.2,17.72,SE,129,0.0,2.2,52,0.00,,---,0.00,VWS V13.00,2013-11-16 10:31:00,
2013-11-16 01:36:00,43.7,27.7,17.72,East,91,0.0,2.2,53,0.00,,---,0.00,VWS V13.00,2013-11-16 10:36:00,
2013-11-16 01:41:00,43.5,27.1,17.72,SSE,159,0.0,0.0,52,0.00,,---,0.00,VWS V13.00,2013-11-16 10:41:00,
2013-11-16 01:46:00,43.5,27.1,17.72,South,181,2.2,3.6,52,0.00,,---,0.00,VWS V13.00,2013-11-16 10:46:00,
2013-11-16 01:51:00,43.5,26.6,17.72,South,181,2.2,3.6,51,0.00,,---,0.00,VWS V13.00,2013-11-16 10:51:00,
2013-11-16 01:56:00,43.3,26.0,17.72,East,99,0.0,3.6,50,0.00,,---,0.00,VWS V13.00,2013-11-16 10:56:00,
2013-11-16 02:01:00,43.2,25.8,17.72,East,84,8.1,8.1,50,0.00,,---,0.00,VWS V13.00,2013-11-16 11:01:00,
2013-11-16 02:06:00,43.2,25.3,17.72,ENE,69,0.0,8.1,49,0.00,,---,0.00,VWS V13.00,2013-11-16 11:06:00,
2013-11-16 02:11:00,43.0,24.6,17.72,East,87,5.4,8.1,48,0.00,,---,0.00,VWS V13.00,2013-11-16 11:11:00,
2013-11-16 02:16:00,42.8,24.0,17.72,WSW,253,5.4,8.1,47,0.00,,---,0.00,VWS V13.00,2013-11-16 11:16:00,
2013-11-16 02:21:00,42.6,23.8,17.72,SE,146,4.0,5.8,47,0.00,,---,0.00,VWS V13.00,2013-11-16 11:21:00,
2013-11-16 02:26:00,42.3,23.0,17.72,SSE,151,0.0,5.8,46,0.00,,---,0.00,VWS V13.00,2013-11-16 11:26:00,
2013-11-16 02:31:00,42.1,22.8,17.72,SSE,159,0.0,5.8,46,0.00,,---,0.00,VWS V13.00,2013-11-16 11:31:00,
2013-11-16 02:36:00,41.7,22.5,17.72,East,97,0.0,5.8,46,0.00,,---,0.00,VWS V13.00,2013-11-16 11:36:00,
2013-11-16 02:41:00,41.4,22.1,17.72,SE,141,5.8,5.8,46,0.00,,---,0.00,VWS V13.00,2013-11-16 11:41:00,
2013-11-16 02:46:00,41.2,22.0,17.72,East,98,3.1,5.8,46,0.00,,---,0.00,VWS V13.00,2013-11-16 11:46:00,
2013-11-16 02:51:00,41.0,21.3,17.72,SSW,199,0.0,6.3,45,0.00,,---,0.00,VWS V13.00,2013-11-16 11:51:00,
2013-11-16 02:56:00,40.6,19.9,17.72,WSW,243,0.0,6.3,43,0.00,,---,0.00,VWS V13.00,2013-11-16 11:56:00,
2013-11-16 03:01:00,40.6,19.4,17.72,SE,125,0.0,0.0,42,0.00,,---,0.00,VWS V13.00,2013-11-16 12:01:00,
2013-11-16 03:06:00,40.5,18.6,17.72,SSW,211,4.0,4.0,41,0.00,,---,0.00,VWS V13.00,2013-11-16 12:06:00,
2013-11-16 03:11:00,40.3,18.5,17.72,East,83,4.0,10.1,41,0.00,,---,0.00,VWS V13.00,2013-11-16 12:11:00,
2013-11-16 03:16:00,40.3,18.5,17.72,NNE,26,0.0,10.1,41,0.00,,---,0.00,VWS V13.00,2013-11-16 12:16:00,
2013-11-16 03:21:00,40.1,18.3,17.72,NNE,22,0.0,0.0,41,0.00,,---,0.00,VWS V13.00,2013-11-16 12:21:00,
2013-11-16 03:26:00,39.7,18.0,17.72,ESE,110,0.0,0.0,41,0.00,,---,0.00,VWS V13.00,2013-11-16 12:26:00,
2013-11-16 03:31:00,39.6,17.8,17.72,SE,133,0.0,0.0,41,0.00,,---,0.00,VWS V13.00,2013-11-16 12:31:00,
2013-11-16 03:36:00,39.6,17.2,17.72,ESE,117,5.4,5.4,40,0.00,,---,0.00,VWS V13.00,2013-11-16 12:36:00,
2013-11-16 03:41:00,39.6,17.2,17.72,South,176,2.2,2.2,40,0.00,,---,0.00,VWS V13.00,2013-11-16 12:41:00,
2013-11-16 03:46:00,39.2,16.3,17.72,NNE,32,7.6,7.6,39,0.00,,---,0.00,VWS V13.00,2013-11-16 12:46:00,
2013-11-16 03:51:00,39.0,16.8,17.72,NNE,32,7.6,7.6,40,0.00,,---,0.00,VWS V13.00,2013-11-16 12:51:00,
2013-11-16 03:56:00,38.8,16.0,17.72,North,357,5.8,7.6,39,0.00,,---,0.00,VWS V13.00,2013-11-16 12:56:00,
2013-11-16 04:01:00,38.7,15.9,17.72,NE,41,0.0,0.0,39,0.00,,---,0.00,VWS V13.00,2013-11-16 13:01:00,
2013-11-16 04:06:00,38.7,15.9,17.72,West,276,3.1,3.1,39,0.00,,---,0.00,VWS V13.00,2013-11-16 13:06:00,
2013-11-16 04:10:00,38.5,15.7,17.72,North,9,5.8,5.8,39,0.00,,---,0.00,VWS V13.00,2013-11-16 13:10:00,
2013-11-16 04:16:00,38.3,15.5,17.72,South,170,5.8,5.8,39,0.00,,---,0.00,VWS V13.00,2013-11-16 13:16:00,
2013-11-16 04:20:00,38.1,15.4,17.72,North,357,0.0,0.0,39,0.00,,---,0.00,VWS V13.00,2013-11-16 13:20:00,
2013-11-16 04:25:00,37.9,15.2,17.72,NW,326,0.0,0.0,39,0.00,,---,0.00,VWS V13.00,2013-11-16 13:25:00,
2013-11-16 04:30:00,37.8,15.0,17.72,NW,326,0.0,0.0,39,0.00,,---,0.00,VWS V13.00,2013-11-16 13:30:00,
2013-11-16 04:35:00,37.9,13.4,17.72,SE,135,4.0,7.6,36,0.00,,---,0.00,VWS V13.00,2013-11-16 13:35:00,
2013-11-16 04:40:00,37.9,14.0,17.72,NW,308,0.0,8.7,37,0.00,,---,0.00,VWS V13.00,2013-11-16 13:40:00,
2013-11-16 04:45:00,37.9,12.7,17.72,East,98,0.0,8.7,35,0.00,,---,0.00,VWS V13.00,2013-11-16 13:45:00,
2013-11-16 04:50:00,37.9,12.1,17.72,ENE,64,4.5,8.7,34,0.00,,---,0.00,VWS V13.00,2013-11-16 13:50:00,
2013-11-16 04:55:00,38.1,12.2,17.72,NNE,29,5.8,17.0,34,0.00,,---,0.00,VWS V13.00,2013-11-16 13:55:00,
2013-11-16 05:00:00,37.9,11.4,17.72,East,93,0.0,0.0,33,0.00,,---,0.00,VWS V13.00,2013-11-16 14:00:00,
2013-11-16 05:05:00,37.9,11.4,17.72,NNE,21,6.3,8.3,33,0.00,,---,0.00,VWS V13.00,2013-11-16 14:05:00,
2013-11-16 05:10:00,37.9,11.4,17.72,NE,34,4.5,8.3,33,0.00,,---,0.00,VWS V13.00,2013-11-16 14:10:00,
2013-11-16 05:15:00,37.8,11.3,17.72,NE,46,0.0,8.3,33,0.00,,---,0.00,VWS V13.00,2013-11-16 14:15:00,
2013-11-16 05:20:00,37.4,10.9,17.72,East,81,0.0,0.0,33,0.00,,---,0.00,VWS V13.00,2013-11-16 14:20:00,
2013-11-16 05:25:00,37.4,10.9,17.72,ENE,74,0.0,0.0,33,0.00,,---,0.00,VWS V13.00,2013-11-16 14:25:00,
2013-11-16 05:30:00,37.2,10.8,17.72,ESE,103,0.0,0.0,33,0.00,,---,0.00,VWS V13.00,2013-11-16 14:30:00,
2013-11-16 05:35:00,37.0,10.6,17.72,SSE,156,0.0,0.0,33,0.00,,---,0.00,VWS V13.00,2013-11-16 14:35:00,
2013-11-16 05:40:00,36.9,10.5,17.72,ESE,103,2.2,2.2,33,0.00,,---,0.00,VWS V13.00,2013-11-16 14:40:00,
2013-11-16 05:45:00,36.9,10.5,17.72,ESE,110,8.3,8.3,33,0.00,,---,0.00,VWS V13.00,2013-11-16 14:45:00,
2013-11-16 05:50:00,36.9,10.5,17.72,ESE,110,8.3,8.3,33,0.00,,---,0.00,VWS V13.00,2013-11-16 14:50:00,
2013-11-16 05:55:00,36.7,9.6,17.72,South,180,0.0,8.3,32,0.00,,---,0.00,VWS V13.00,2013-11-16 14:55:00,
2013-11-16 06:00:00,36.7,10.3,17.72,ENE,69,0.0,0.0,33,0.00,,---,0.00,VWS V13.00,2013-11-16 15:00:00,
2013-11-16 06:05:00,36.5,10.1,17.72,North,349,0.0,0.0,33,0.00,,---,0.00,VWS V13.00,2013-11-16 15:05:00,
2013-11-16 06:10:00,36.3,10.0,17.72,SE,145,0.0,7.6,33,0.00,,---,0.00,VWS V13.00,2013-11-16 15:10:00,
2013-11-16 06:15:00,36.3,10.0,17.72,SW,224,0.0,7.6,33,0.00,,---,0.00,VWS V13.00,2013-11-16 15:15:00,
2013-11-16 06:20:00,36.1,9.8,17.72,South,183,0.0,0.0,33,0.00,,---,0.00,VWS V13.00,2013-11-16 15:20:00,
2013-11-16 06:25:00,35.8,9.5,17.72,SW,232,0.0,0.0,33,0.00,,---,0.00,VWS V13.00,2013-11-16 15:25:00,
2013-11-16 06:30:00,35.6,9.4,17.72,SW,232,0.0,0.0,33,0.00,,---,0.00,VWS V13.00,2013-11-16 15:30:00,
2013-11-16 06:35:00,35.4,9.9,17.72,NE,44,0.0,0.0,34,0.00,,---,0.00,VWS V13.00,2013-11-16 15:35:00,
2013-11-16 06:40:00,35.1,9.5,17.72,SW,223,0.0,0.0,34,0.00,,---,0.00,VWS V13.00,2013-11-16 15:40:00,
2013-11-16 06:45:00,34.9,10.0,17.72,SW,216,0.0,0.0,35,0.00,,---,0.00,VWS V13.00,2013-11-16 15:45:00,
2013-11-16 06:50:00,34.7,9.2,17.72,NNE,33,0.0,0.0,34,0.00,,---,0.00,VWS V13.00,2013-11-16 15:50:00,
2013-11-16 06:55:00,34.5,9.7,17.72,South,177,0.0,0.0,35,0.00,,---,0.00,VWS V13.00,2013-11-16 15:55:00,
2013-11-16 07:00:00,34.5,9.1,17.72,East,79,0.0,0.0,34,0.00,,---,0.00,VWS V13.00,2013-11-16 16:00:00,
2013-11-16 07:05:00,34.5,9.7,17.72,ENE,66,0.0,6.3,35,0.00,,---,0.00,VWS V13.00,2013-11-16 16:05:00,
2013-11-16 07:10:00,34.3,9.5,17.72,North,7,0.0,6.3,35,0.00,,---,0.00,VWS V13.00,2013-11-16 16:10:00,
2013-11-16 07:15:00,34.3,9.5,17.72,East,100,0.0,6.3,35,0.00,,---,0.00,VWS V13.00,2013-11-16 16:15:00,
2013-11-16 07:20:00,34.3,9.5,17.72,South,181,0.0,0.0,35,0.00,,---,0.00,VWS V13.00,2013-11-16 16:20:00,
2013-11-16 07:25:00,34.3,10.2,17.72,NNW,338,0.0,0.0,36,0.00,,---,0.00,VWS V13.00,2013-11-16 16:25:00,
2013-11-16 07:30:00,34.2,10.0,17.72,NNE,12,2.7,4.0,36,0.00,,---,0.00,VWS V13.00,2013-11-16 16:30:00,
2013-11-16 07:35:00,34.0,9.9,17.72,NNE,31,0.0,4.0,36,0.00,,---,0.00,VWS V13.00,2013-11-16 16:35:00,
2013-11-16 07:40:00,34.2,10.0,17.72,NNE,29,0.0,0.0,36,0.00,,---,0.00,VWS V13.00,2013-11-16 16:40:00,
2013-11-16 07:45:00,34.0,9.9,17.72,NNW,328,7.6,7.6,36,0.00,,---,0.00,VWS V13.00,2013-11-16 16:45:00,
2013-11-16 07:50:00,33.8,10.3,17.72,SE,125,0.0,7.6,37,0.00,,---,0.00,VWS V13.00,2013-11-16 16:50:00,
2013-11-16 07:55:00,33.6,9.5,17.72,NE,41,7.2,7.6,36,0.00,,---,0.00,VWS V13.00,2013-11-16 16:55:00,
2013-11-16 08:01:00,33.6,9.5,17.72,SW,230,0.0,0.0,36,0.00,,---,0.00,VWS V13.00,2013-11-16 17:01:00,
2013-11-16 08:06:00,33.4,10.0,17.72,ESE,121,0.0,0.0,37,0.00,,---,0.00,VWS V13.00,2013-11-16 17:06:00,
2013-11-16 08:11:00,33.1,10.2,17.72,SE,144,0.0,0.0,38,0.00,,---,0.00,VWS V13.00,2013-11-16 17:11:00,
2013-11-16 08:16:00,33.3,9.2,17.72,East,92,0.0,8.1,36,0.00,,---,0.00,VWS V13.00,2013-11-16 17:16:00,
2013-11-16 08:21:00,33.6,9.5,17.72,WSW,249,0.0,0.0,36,0.00,,---,0.00,VWS V13.00,2013-11-16 17:21:00,
2013-11-16 08:26:00,33.6,9.5,17.72,South,186,0.0,0.0,36,0.00,,---,0.00,VWS V13.00,2013-11-16 17:26:00,
2013-11-16 08:31:00,33.6,9.5,17.72,South,186,0.0,0.0,36,0.00,,---,0.00,VWS V13.00,2013-11-16 17:31:00,
2013-11-16 08:36:00,33.6,9.5,17.72,SSE,167,0.0,2.7,36,0.00,,---,0.00,VWS V13.00,2013-11-16 17:36:00,
2013-11-16 08:41:00,33.8,9.1,17.72,East,79,0.0,0.0,35,0.00,,---,0.00,VWS V13.00,2013-11-16 17:41:00,
2013-11-16 08:46:00,34.0,9.2,17.72,SSE,158,0.0,0.0,35,0.00,,---,0.00,VWS V13.00,2013-11-16 17:46:00,
2013-11-16 08:51:00,34.0,9.2,17.72,SSE,150,3.1,3.1,35,0.00,,---,0.00,VWS V13.00,2013-11-16 17:51:00,
2013-11-16 08:56:00,34.2,8.7,17.72,South,176,3.1,3.1,34,0.00,,---,0.00,VWS V13.00,2013-11-16 17:56:00,
2013-11-16 09:01:00,34.0,8.6,17.72,WSW,245,0.0,0.0,34,0.00,,---,0.00,VWS V13.00,2013-11-16 18:01:00,
2013-11-16 09:06:00,34.0,8.6,17.72,East,84,5.4,5.4,34,0.00,,---,0.00,VWS V13.00,2013-11-16 18:06:00,
2013-11-16 09:11:00,34.2,8.7,17.72,SW,220,0.0,5.4,34,0.00,,---,0.00,VWS V13.00,2013-11-16 18:11:00,
2013-11-16 09:16:00,34.2,8.7,17.72,SW,235,0.0,5.4,34,0.00,,---,0.00,VWS V13.00,2013-11-16 18:16:00,
2013-11-16 09:21:00,34.5,9.1,17.72,SW,216,0.0,0.0,34,0.00,,---,0.00,VWS V13.00,2013-11-16 18:21:00,
2013-11-16 09:26:00,34.5,9.1,17.72,WNW,297,0.0,6.3,34,0.00,,---,0.00,VWS V13.00,2013-11-16 18:26:00,
2013-11-16 09:31:00,34.7,9.2,17.72,SE,141,2.7,6.7,34,0.00,,---,0.00,VWS V13.00,2013-11-16 18:31:00,
2013-11-16 09:36:00,34.9,9.4,17.72,West,266,0.0,6.7,34,0.00,,---,0.00,VWS V13.00,2013-11-16 18:36:00,
2013-11-16 09:41:00,34.9,9.4,17.72,South,186,0.0,5.4,34,0.00,,---,0.00,VWS V13.00,2013-11-16 18:41:00,
2013-11-16 09:46:00,35.1,9.5,17.72,South,174,0.0,6.3,34,0.00,,---,0.00,VWS V13.00,2013-11-16 18:46:00,
2013-11-16 09:51:00,35.1,9.5,17.72,SE,133,0.0,6.3,34,0.00,,---,0.00,VWS V13.00,2013-11-16 18:51:00,
2013-11-16 09:55:00,35.1,9.5,17.72,SW,221,0.0,8.7,34,0.00,,---,0.00,VWS V13.00,2013-11-16 18:55:00,
2013-11-16 10:00:00,35.1,9.5,17.72,SSE,164,0.0,8.7,34,0.00,,---,0.00,VWS V13.00,2013-11-16 19:00:00,
2013-11-16 10:05:00,35.2,9.0,17.72,SSE,149,5.4,8.7,33,0.00,,---,0.00,VWS V13.00,2013-11-16 19:05:00,
2013-11-16 10:10:00,35.4,9.2,17.72,SE,135,6.3,10.5,33,0.00,,---,0.00,VWS V13.00,2013-11-16 19:10:00,
2013-11-16 10:15:00,35.6,9.4,17.72,NNE,31,8.3,10.5,33,0.00,,---,0.00,VWS V13.00,2013-11-16 19:15:00,
2013-11-16 10:20:00,35.6,9.4,17.72,NNW,342,0.0,0.0,33,0.00,,---,0.00,VWS V13.00,2013-11-16 19:20:00,
2013-11-16 10:25:00,35.8,8.8,17.72,NNW,344,0.0,0.0,32,0.00,,---,0.00,VWS V13.00,2013-11-16 19:25:00,
2013-11-16 10:30:00,35.8,8.8,17.72,NNW,331,2.2,5.4,32,0.00,,---,0.00,VWS V13.00,2013-11-16 19:30:00,
2013-11-16 10:35:00,35.8,8.8,17.72,SSE,168,5.8,7.6,32,0.00,,---,0.00,VWS V13.00,2013-11-16 19:35:00,
2013-11-16 10:40:00,36.0,9.0,17.72,East,99,4.0,4.0,32,0.00,,---,0.00,VWS V13.00,2013-11-16 19:40:00,
2013-11-16 10:45:00,36.0,9.0,17.72,SW,229,2.2,8.1,32,0.00,,---,0.00,VWS V13.00,2013-11-16 19:45:00,
2013-11-16 10:50:00,36.1,9.1,17.72,East,81,7.2,12.8,32,0.00,,---,0.00,VWS V13.00,2013-11-16 19:50:00,
2013-11-16 10:55:00,36.1,9.1,17.72,WSW,241,0.0,12.8,32,0.00,,---,0.00,VWS V13.00,2013-11-16 19:55:00,
2013-11-16 11:00:00,36.1,9.1,17.72,East,83,4.0,4.0,32,0.00,,---,0.00,VWS V13.00,2013-11-16 20:00:00,
2013-11-16 11:05:00,36.1,9.1,17.72,ESE,105,0.0,4.9,32,0.00,,---,0.00,VWS V13.00,2013-11-16 20:05:00,
2013-11-16 11:10:00,36.1,8.4,17.72,East,93,2.2,4.9,31,0.00,,---,0.00,VWS V13.00,2013-11-16 20:10:00,
2013-11-16 11:15:00,36.1,9.1,17.72,ENE,70,5.8,5.8,32,0.00,,---,0.00,VWS V13.00,2013-11-16 20:15:00,
2013-11-16 11:20:00,36.1,8.4,17.72,ENE,70,5.8,5.8,31,0.00,,---,0.00,VWS V13.00,2013-11-16 20:20:00,
2013-11-16 11:25:00,36.1,8.4,17.72,NE,49,0.0,6.3,31,0.00,,---,0.00,VWS V13.00,2013-11-16 20:25:00,
2013-11-16 11:30:00,36.1,8.4,17.72,SE,134,5.4,6.3,31,0.00,,---,0.00,VWS V13.00,2013-11-16 20:30:00,
2013-11-16 11:35:00,36.1,8.4,17.72,North,3,9.2,9.2,31,0.00,,---,0.00,VWS V13.00,2013-11-16 20:35:00,
2013-11-16 11:40:00,36.1,8.4,17.72,NE,44,5.8,5.8,31,0.00,,---,0.00,VWS V13.00,2013-11-16 20:40:00,
2013-11-16 11:45:00,36.1,8.4,17.72,NE,44,5.8,5.8,31,0.00,,---,0.00,VWS V13.00,2013-11-16 20:45:00,
2013-11-16 11:50:00,36.0,8.3,17.72,ESE,118,10.1,10.1,31,0.00,,---,0.00,VWS V13.00,2013-11-16 20:50:00,
2013-11-16 11:55:00,36.0,8.3,17.72,SE,144,4.0,10.1,31,0.00,,---,0.00,VWS V13.00,2013-11-16 20:55:00,
2013-11-16 12:00:00,36.0,8.3,17.72,SE,144,4.0,4.0,31,0.00,,---,0.00,VWS V13.00,2013-11-16 21:00:00,
2013-11-16 12:05:00,36.0,8.3,17.72,ESE,107,4.9,4.9,31,0.00,,---,0.00,VWS V13.00,2013-11-16 21:05:00,
2013-11-16 12:10:00,35.8,8.1,17.72,South,191,6.3,6.3,31,0.00,,---,0.00,VWS V13.00,2013-11-16 21:10:00,
2013-11-16 12:15:00,35.8,8.1,17.72,East,95,14.5,14.5,31,0.00,,---,0.00,VWS V13.00,2013-11-16 21:15:00,
2013-11-16 12:20:00,35.8,8.8,17.72,NE,36,0.0,0.0,32,0.00,,---,0.00,VWS V13.00,2013-11-16 21:20:00,
2013-11-16 12:25:00,35.8,8.1,17.72,NE,36,0.0,0.0,31,0.00,,---,0.00,VWS V13.00,2013-11-16 21:25:00,
2013-11-16 12:30:00,35.8,8.8,17.72,NNE,22,0.0,0.0,32,0.00,,---,0.00,VWS V13.00,2013-11-16 21:30:00,
2013-11-16 12:35:00,35.6,8.7,17.72,ESE,113,4.9,4.9,32,0.00,,---,0.00,VWS V13.00,2013-11-16 21:35:00,
2013-11-16 12:40:00,35.6,8.7,17.72,NNE,13,2.2,2.2,32,0.00,,---,0.00,VWS V13.00,2013-11-16 21:40:00,
2013-11-16 12:45:00,35.4,8.5,17.72,North,5,9.6,9.6,32,0.00,,---,0.00,VWS V13.00,2013-11-16 21:45:00,
2013-11-16 12:50:00,35.4,8.5,17.72,East,85,0.0,9.6,32,0.00,,---,0.00,VWS V13.00,2013-11-16 21:50:00,
2013-11-16 12:55:00,35.4,8.5,17.72,ENE,70,0.0,9.6,32,0.00,,---,0.00,VWS V13.00,2013-11-16 21:55:00,
2013-11-16 13:00:00,35.4,8.5,17.72,SSE,154,0.0,0.0,32,0.00,,---,0.00,VWS V13.00,2013-11-16 22:00:00,
2013-11-16 13:05:00,35.4,9.2,17.72,ENE,73,2.7,8.3,33,0.00,,---,0.00,VWS V13.00,2013-11-16 22:05:00,
2013-11-16 13:10:00,35.4,9.2,17.72,SE,138,5.4,8.3,33,0.00,,---,0.00,VWS V13.00,2013-11-16 22:10:00,
2013-11-16 13:15:00,35.2,9.0,17.72,SE,144,0.0,8.3,33,0.00,,---,0.00,VWS V13.00,2013-11-16 22:15:00,
2013-11-16 13:20:00,35.2,9.0,17.72,SE,144,0.0,0.0,33,0.00,,---,0.00,VWS V13.00,2013-11-16 22:20:00,
2013-11-16 13:25:00,35.2,9.0,17.72,SSE,160,2.2,6.7,33,0.00,,---,0.00,VWS V13.00,2013-11-16 22:25:00,
2013-11-16 13:30:00,35.1,8.9,17.72,WSW,241,4.5,8.1,33,0.00,,---,0.00,VWS V13.00,2013-11-16 22:30:00,
2013-11-16 13:35:00,35.1,9.5,17.72,North,349,6.3,8.1,34,0.00,,---,0.00,VWS V13.00,2013-11-16 22:35:00,
2013-11-16 13:40:00,35.1,9.5,17.72,SE,132,0.0,0.0,34,0.00,,---,0.00,VWS V13.00,2013-11-16 22:40:00,
2013-11-16 13:45:00,35.1,9.5,17.72,WSW,241,6.3,6.3,34,0.00,,---,0.00,VWS V13.00,2013-11-16 22:45:00,
2013-11-16 13:50:00,35.1,9.5,17.72,West,262,2.7,7.2,34,0.00,,---,0.00,VWS V13.00,2013-11-16 22:50:00,
2013-11-16 13:55:00,35.1,9.5,17.72,East,81,0.0,7.2,34,0.00,,---,0.00,VWS V13.00,2013-11-16 22:55:00,
2013-11-16 14:00:00,34.9,9.4,17.72,ESE,110,0.0,0.0,34,0.00,,---,0.00,VWS V13.00,2013-11-16 23:00:00,
2013-11-16 14:05:00,34.9,9.4,17.72,WSW,254,4.0,4.0,34,0.00,,---,0.00,VWS V13.00,2013-11-16 23:05:00,
2013-11-16 14:10:00,34.9,9.4,17.72,SE,136,15.4,15.4,34,0.00,,---,0.00,VWS V13.00,2013-11-16 23:10:00,
2013-11-16 14:15:00,34.7,9.2,17.72,South,169,2.2,15.4,34,0.00,,---,0.00,VWS V13.00,2013-11-16 23:15:00,
2013-11-16 14:20:00,34.7,9.2,17.72,NE,37,2.2,2.2,34,0.00,,---,0.00,VWS V13.00,2013-11-16 23:20:00,
2013-11-16 14:25:00,34.9,9.4,17.72,NE,37,2.2,2.2,34,0.00,,---,0.00,VWS V13.00,2013-11-16 23:25:00,
2013-11-16 14:30:00,34.7,9.2,17.72,NNW,329,0.0,2.2,34,0.00,,---,0.00,VWS V13.00,2013-11-16 23:30:00,
2013-11-16 14:35:00,34.5,9.1,17.72,NE,36,3.1,5.4,34,0.00,,---,0.00,VWS V13.00,2013-11-16 23:35:00,
2013-11-16 14:40:00,34.3,8.9,17.72,South,183,4.9,4.9,34,0.00,,---,0.00,VWS V13.00,2013-11-16 23:40:00,
2013-11-16 14:45:00,34.3,8.9,17.72,SW,224,0.0,4.9,34,0.00,,---,0.00,VWS V13.00,2013-11-16 23:45:00,
2013-11-16 14:50:00,34.3,8.9,17.72,East,86,3.1,4.9,34,0.00,,---,0.00,VWS V13.00,2013-11-16 23:50:00,
2013-11-16 14:55:00,34.3,8.9,17.72,South,175,7.6,7.6,34,0.00,,---,0.00,VWS V13.00,2013-11-16 23:55:00,
2013-11-16 15:00:00,34.3,9.5,17.72,NNE,30,10.1,10.1,35,0.00,,---,0.00,VWS V13.00,2013-11-17 00:00:00,
2013-11-16 15:05:00,34.2,9.4,17.72,East,98,5.4,10.1,35,0.00,,---,0.00,VWS V13.00,2013-11-17 00:05:00,
2013-11-16 15:10:00,34.2,9.4,17.72,East,86,3.1,10.1,35,0.00,,---,0.00,VWS V13.00,2013-11-17 00:10:00,
2013-11-16 15:15:00,34.0,9.2,17.72,SSE,153,0.0,10.1,35,0.00,,---,0.00,VWS V13.00,2013-11-17 00:15:00,
2013-11-16 15:20:00,34.0,9.2,17.72,East,90,5.4,5.4,35,0.00,,---,0.00,VWS V13.00,2013-11-17 00:20:00,
2013-11-16 15:25:00,33.8,9.1,17.72,South,171,3.1,5.4,35,0.00,,---,0.00,VWS V13.00,2013-11-17 00:25:00,
2013-11-16 15:30:00,33.8,9.1,17.72,NE,54,0.0,5.8,35,0.00,,---,0.00,VWS V13.00,2013-11-17 00:30:00,
2013-11-16 15:35:00,33.8,8.4,17.72,SW,221,0.0,5.8,34,0.00,,---,0.00,VWS V13.00,2013-11-17 00:35:00,
2013-11-16 15:40:00,33.6,8.9,17.72,NW,319,0.0,5.8,35,0.00,,---,0.00,VWS V13.00,2013-11-17 00:40:00,
2013-11-16 15:45:00,33.6,8.3,17.72,SE,137,8.1,8.1,34,0.00,,---,0.00,VWS V13.00,2013-11-17 00:45:00,
2013-11-16 15:50:00,33.4,8.7,17.72,NW,317,0.0,10.1,35,0.00,,---,0.00,VWS V13.00,2013-11-17 00:50:00,
2013-11-16 15:55:00,33.3,7.9,17.72,WNW,296,3.1,10.1,34,0.00,,---,0.00,VWS V13.00,2013-11-17 00:55:00,
2013-11-16 16:00:00,33.3,7.9,17.72,ESE,122,0.0,0.0,34,0.00,,---,0.00,VWS V13.00,2013-11-17 01:00:00,
2013-11-16 16:05:00,33.1,8.4,17.72,WSW,247,0.0,5.8,35,0.00,,---,0.00,VWS V13.00,2013-11-17 01:05:00,
2013-11-16 16:10:00,33.1,8.4,17.72,South,187,5.4,5.8,35,0.00,,---,0.00,VWS V13.00,2013-11-17 01:10:00,
2013-11-16 16:15:00,33.1,8.4,17.72,NE,37,3.1,5.8,35,0.00,,---,0.00,VWS V13.00,2013-11-17 01:15:00,
2013-11-16 16:20:00,33.1,8.4,17.72,ESE,108,7.6,7.6,35,0.00,,---,0.00,VWS V13.00,2013-11-17 01:20:00,
2013-11-16 16:25:00,32.9,8.3,17.72,SSE,154,0.0,7.6,35,0.00,,---,0.00,VWS V13.00,2013-11-17 01:25:00,
2013-11-16 16:30:00,32.9,8.3,17.72,NW,313,0.0,7.6,35,0.00,,---,0.00,VWS V13.00,2013-11-17 01:30:00,
2013-11-16 16:35:00,32.7,8.1,17.72,SSE,152,3.1,7.6,35,0.00,,---,0.00,VWS V13.00,2013-11-17 01:35:00,
2013-11-16 16:40:00,32.7,8.1,17.72,WSW,257,0.0,3.6,35,0.00,,---,0.00,VWS V13.00,2013-11-17 01:40:00,
2013-11-16 16:45:00,32.7,8.7,17.72,SW,222,5.8,6.7,36,0.00,,---,0.00,VWS V13.00,2013-11-17 01:45:00,
2013-11-16 16:50:00,32.5,7.9,17.72,West,280,0.0,10.5,35,0.00,,---,0.00,VWS V13.00,2013-11-17 01:50:00,
2013-11-16 16:55:00,32.5,7.9,17.72,South,180,8.1,10.5,35,0.00,,---,0.00,VWS V13.00,2013-11-17 01:55:00,
2013-11-16 17:00:00,32.5,7.9,17.72,SW,234,8.1,8.1,35,0.00,,---,0.00,VWS V13.00,2013-11-17 02:00:00,
2013-11-16 17:05:00,32.5,7.9,17.72,SSE,166,5.8,8.1,35,0.00,,---,0.00,VWS V13.00,2013-11-17 02:05:00,
2013-11-16 17:10:00,32.5,7.9,17.72,SW,220,7.6,8.1,35,0.00,,---,0.00,VWS V13.00,2013-11-17 02:10:00,
2013-11-16 17:15:00,32.4,7.8,17.72,East,98,7.6,13.2,35,0.00,,---,0.00,VWS V13.00,2013-11-17 02:15:00,
2013-11-16 17:20:00,32.4,7.8,17.72,SE,124,8.1,8.1,35,0.00,,---,0.00,VWS V13.00,2013-11-17 02:20:00,
2013-11-16 17:25:00,32.2,8.2,17.72,West,266,7.2,8.1,36,0.00,,---,0.00,VWS V13.00,2013-11-17 02:25:00,
2013-11-16 17:30:00,32.0,8.7,17.72,NNW,331,0.0,8.1,37,0.00,,---,0.00,VWS V13.00,2013-11-17 02:30:00,
2013-11-16 17:35:00,31.8,8.5,17.72,West,268,0.0,8.1,37,0.00,,---,0.00,VWS V13.00,2013-11-17 02:35:00,
2013-11-16 17:40:00,31.5,8.2,17.72,WSW,251,7.6,7.6,37,0.00,,---,0.00,VWS V13.00,2013-11-17 02:40:00,
2013-11-16 17:45:00,31.5,8.8,17.72,West,263,2.2,17.0,38,0.00,,---,0.00,VWS V13.00,2013-11-17 02:45:00,
2013-11-16 17:50:00,31.5,8.8,17.72,NW,318,6.3,17.0,38,0.00,,---,0.00,VWS V13.00,2013-11-17 02:50:00,
2013-11-16 17:56:00,31.3,8.6,17.72,West,269,3.6,17.0,38,0.00,,---,0.00,VWS V13.00,2013-11-17 02:56:00,
2013-11-16 18:01:00,31.1,9.1,17.72,NNW,344,10.5,10.5,39,0.00,,---,0.00,VWS V13.00,2013-11-17 03:01:00,
2013-11-16 18:06:00,31.1,8.5,17.72,SW,235,8.7,12.8,38,0.00,,---,0.00,VWS V13.00,2013-11-17 03:06:00,
2013-11-16 18:11:00,31.1,8.5,17.72,SSW,196,0.0,12.8,38,0.00,,---,0.00,VWS V13.00,2013-11-17 03:11:00,
2013-11-16 18:16:00,31.1,8.5,17.72,SSE,151,0.0,12.8,38,0.00,,---,0.00,VWS V13.00,2013-11-17 03:16:00,
2013-11-16 18:21:00,31.1,8.5,17.72,SSE,159,0.0,0.0,38,0.00,,---,0.00,VWS V13.00,2013-11-17 03:21:00,
2013-11-16 18:26:00,31.1,8.5,17.72,NNE,18,0.0,0.0,38,0.00,,---,0.00,VWS V13.00,2013-11-17 03:26:00,
2013-11-16 18:31:00,31.1,8.5,17.72,WSW,249,0.0,0.0,38,0.00,,---,0.00,VWS V13.00,2013-11-17 03:31:00,
2013-11-16 18:36:00,30.9,8.3,17.72,West,267,0.0,0.0,38,0.00,,---,0.00,VWS V13.00,2013-11-17 03:36:00,
2013-11-16 18:41:00,30.9,7.7,17.72,SSW,208,0.0,0.0,37,0.00,,---,0.00,VWS V13.00,2013-11-17 03:41:00,
2013-11-16 18:46:00,30.9,7.7,17.72,SSE,155,0.0,0.0,37,0.00,,---,0.00,VWS V13.00,2013-11-17 03:46:00,
2013-11-16 18:51:00,30.7,7.6,17.72,SSE,154,0.0,0.0,37,0.00,,---,0.00,VWS V13.00,2013-11-17 03:51:00,
2013-11-16 18:56:00,30.6,7.4,17.72,SSE,154,0.0,0.0,37,0.00,,---,0.00,VWS V13.00,2013-11-17 03:56:00,
2013-11-16 19:01:00,30.6,6.8,17.72,SSE,154,0.0,0.0,36,0.00,,---,0.00,VWS V13.00,2013-11-17 04:01:00,
2013-11-16 19:06:00,30.6,6.8,17.72,SSE,154,0.0,0.0,36,0.00,,---,0.00,VWS V13.00,2013-11-17 04:06:00,
2013-11-16 19:11:00,30.4,6.0,17.72,SSE,154,0.0,0.0,35,0.00,,---,0.00,VWS V13.00,2013-11-17 04:11:00,
2013-11-16 19:16:00,30.4,6.0,17.72,SSE,154,0.0,0.0,35,0.00,,---,0.00,VWS V13.00,2013-11-17 04:16:00,
2013-11-16 19:21:00,30.4,6.0,17.72,SSE,155,0.0,0.0,35,0.00,,---,0.00,VWS V13.00,2013-11-17 04:21:00,
2013-11-16 19:26:00,30.4,6.0,17.72,SSE,155,0.0,0.0,35,0.00,,---,0.00,VWS V13.00,2013-11-17 04:26:00,
2013-11-16 19:31:00,30.2,5.9,17.72,SSE,155,0.0,0.0,35,0.00,,---,0.00,VWS V13.00,2013-11-17 04:31:00,
2013-11-16 19:36:00,30.0,5.7,17.72,SSE,155,0.0,0.0,35,0.00,,---,0.00,VWS V13.00,2013-11-17 04:36:00,
2013-11-16 19:41:00,30.2,5.9,17.72,SSE,155,0.0,0.0,35,0.00,,---,0.00,VWS V13.00,2013-11-17 04:41:00,
2013-11-16 19:46:00,30.0,5.7,17.72,SSE,155,0.0,0.0,35,0.00,,---,0.00,VWS V13.00,2013-11-17 04:46:00,
2013-11-16 19:51:00,29.8,5.5,17.72,SSE,155,0.0,0.0,35,0.00,,---,0.00,VWS V13.00,2013-11-17 04:51:00,
2013-11-16 19:56:00,29.8,5.5,17.72,SSE,155,0.0,0.0,35,0.00,,---,0.00,VWS V13.00,2013-11-17 04:56:00,
2013-11-16 20:01:00,29.7,5.4,17.72,SSE,155,0.0,0.0,35,0.00,,---,0.00,VWS V13.00,2013-11-17 05:01:00,
2013-11-16 20:06:00,29.7,5.4,17.72,SSE,155,0.0,0.0,35,0.00,,---,0.00,VWS V13.00,2013-11-17 05:06:00,
2013-11-16 20:11:00,29.7,4.7,17.72,SSE,155,0.0,0.0,34,0.00,,---,0.00,VWS V13.00,2013-11-17 05:11:00,
2013-11-16 20:16:00,29.7,4.7,17.72,SSE,155,0.0,0.0,34,0.00,,---,0.00,VWS V13.00,2013-11-17 05:16:00,
2013-11-16 20:21:00,29.7,4.7,17.72,SSE,155,0.0,0.0,34,0.00,,---,0.00,VWS V13.00,2013-11-17 05:21:00,
2013-11-16 20:26:00,29.8,4.9,17.72,SSE,155,0.0,0.0,34,0.00,,---,0.00,VWS V13.00,2013-11-17 05:26:00,
2013-11-16 20:31:00,29.5,4.6,17.72,SSE,155,0.0,0.0,34,0.00,,---,0.00,VWS V13.00,2013-11-17 05:31:00,
2013-11-16 20:36:00,29.5,4.6,17.72,SSE,155,0.0,0.0,34,0.00,,---,0.00,VWS V13.00,2013-11-17 05:36:00,
2013-11-16 20:41:00,29.5,4.6,17.72,SSE,155,0.0,0.0,34,0.00,,---,0.00,VWS V13.00,2013-11-17 05:41:00,
2013-11-16 20:46:00,29.7,4.7,17.72,SSE,155,0.0,0.0,34,0.00,,---,0.00,VWS V13.00,2013-11-17 05:46:00,
2013-11-16 20:51:00,29.7,4.7,17.72,SSE,155,0.0,0.0,34,0.00,,---,0.00,VWS V13.00,2013-11-17 05:51:00,
2013-11-16 20:56:00,29.7,4.7,17.72,SSE,155,0.0,0.0,34,0.00,,---,0.00,VWS V13.00,2013-11-17 05:56:00,
2013-11-16 21:01:00,29.7,4.7,17.72,SSE,155,0.0,0.0,34,0.00,,---,0.00,VWS V13.00,2013-11-17 06:01:00,
2013-11-16 21:06:00,29.5,4.6,17.72,SSE,155,0.0,0.0,34,0.00,,---,0.00,VWS V13.00,2013-11-17 06:06:00,
2013-11-16 21:11:00,29.5,4.6,17.72,SSE,155,0.0,0.0,34,0.00,,---,0.00,VWS V13.00,2013-11-17 06:11:00,
2013-11-16 21:16:00,29.5,4.6,17.72,SSE,155,0.0,0.0,34,0.00,,---,0.00,VWS V13.00,2013-11-17 06:16:00,
2013-11-16 21:21:00,29.5,3.9,17.72,SSE,155,0.0,0.0,33,0.00,,---,0.00,VWS V13.00,2013-11-17 06:21:00,
2013-11-16 21:26:00,29.7,4.1,17.72,SSE,155,0.0,0.0,33,0.00,,---,0.00,VWS V13.00,2013-11-17 06:26:00,
2013-11-16 21:31:00,29.8,4.2,17.72,SSE,155,0.0,0.0,33,0.00,,---,0.00,VWS V13.00,2013-11-17 06:31:00,
2013-11-16 21:36:00,29.8,4.9,17.72,SSE,155,0.0,0.0,34,0.00,,---,0.00,VWS V13.00,2013-11-17 06:36:00,
2013-11-16 21:41:00,29.8,4.2,17.72,SSE,155,0.0,0.0,33,0.00,,---,0.00,VWS V13.00,2013-11-17 06:41:00,
2013-11-16 21:46:00,30.0,4.4,17.72,SSE,155,0.0,0.0,33,0.00,,---,0.00,VWS V13.00,2013-11-17 06:46:00,
2013-11-16 21:51:00,30.0,4.4,17.72,SSE,155,0.0,0.0,33,0.00,,---,0.00,VWS V13.00,2013-11-17 06:51:00,
2013-11-16 21:56:00,29.8,4.2,17.72,SSE,155,0.0,0.0,33,0.00,,---,0.00,VWS V13.00,2013-11-17 06:56:00,
2013-11-16 22:01:00,29.8,4.2,17.72,SSE,155,0.0,0.0,33,0.00,,---,0.00,VWS V13.00,2013-11-17 07:01:00,
2013-11-16 22:06:00,30.0,4.4,17.72,SSE,155,0.0,0.0,33,0.00,,---,0.00,VWS V13.00,2013-11-17 07:06:00,
2013-11-16 22:11:00,30.0,4.4,17.72,SSE,155,0.0,0.0,33,0.00,,---,0.00,VWS V13.00,2013-11-17 07:11:00,
2013-11-16 22:16:00,30.0,4.4,17.72,SSE,155,0.0,0.0,33,0.00,,---,0.00,VWS V13.00,2013-11-17 07:16:00,
2013-11-16 22:21:00,30.2,4.6,17.72,SSE,155,0.0,0.0,33,0.00,,---,0.00,VWS V13.00,2013-11-17 07:21:00,
2013-11-16 22:26:00,30.0,4.4,17.72,SSE,155,0.0,0.0,33,0.00,,---,0.00,VWS V13.00,2013-11-17 07:26:00,
2013-11-16 22:31:00,30.0,5.1,17.72,SSE,155,0.0,0.0,34,0.00,,---,0.00,VWS V13.00,2013-11-17 07:31:00,
2013-11-16 22:36:00,30.0,5.1,17.72,SSE,155,0.0,0.0,34,0.00,,---,0.00,VWS V13.00,2013-11-17 07:36:00,
2013-11-16 22:41:00,30.0,5.1,17.72,SSE,155,0.0,0.0,34,0.00,,---,0.00,VWS V13.00,2013-11-17 07:41:00,
2013-11-16 22:46:00,30.0,5.1,17.72,SSE,155,0.0,0.0,34,0.00,,---,0.00,VWS V13.00,2013-11-17 07:46:00,
2013-11-16 22:51:00,29.8,4.9,17.72,SSE,155,0.0,0.0,34,0.00,,---,0.00,VWS V13.00,2013-11-17 07:51:00,
2013-11-16 22:56:00,29.7,4.7,17.72,SSE,155,0.0,0.0,34,0.00,,---,0.00,VWS V13.00,2013-11-17 07:56:00,
2013-11-16 23:01:00,29.7,4.7,17.72,SSE,155,0.0,0.0,34,0.00,,---,0.00,VWS V13.00,2013-11-17 08:01:00,
2013-11-16 23:06:00,29.7,4.7,17.72,SSE,155,0.0,0.0,34,0.00,,---,0.00,VWS V13.00,2013-11-17 08:06:00,
2013-11-16 23:11:00,29.7,4.7,17.72,SSE,155,0.0,0.0,34,0.00,,---,0.00,VWS V13.00,2013-11-17 08:11:00,
2013-11-16 23:16:00,29.5,4.6,17.72,SSE,155,0.0,0.0,34,0.00,,---,0.00,VWS V13.00,2013-11-17 08:16:00,
2013-11-16 23:21:00,29.5,4.6,17.72,SSE,155,0.0,0.0,34,0.00,,---,0.00,VWS V13.00,2013-11-17 08:21:00,
2013-11-16 23:26:00,29.5,4.6,17.72,SSE,155,0.0,0.0,34,0.00,,---,0.00,VWS V13.00,2013-11-17 08:26:00,
2013-11-16 23:31:00,29.5,4.6,17.72,SSE,155,0.0,0.0,34,0.00,,---,0.00,VWS V13.00,2013-11-17 08:31:00,
2013-11-16 23:36:00,29.5,4.6,17.72,SSE,155,0.0,0.0,34,0.00,,---,0.00,VWS V13.00,2013-11-17 08:36:00,
2013-11-16 23:41:00,29.3,4.4,17.72,SSE,155,0.0,0.0,34,0.00,,---,0.00,VWS V13.00,2013-11-17 08:41:00,
2013-11-16 23:46:00,29.3,4.4,17.72,SSE,155,0.0,0.0,34,0.00,,---,0.00,VWS V13.00,2013-11-17 08:46:00,
2013-11-16 23:51:00,29.3,4.4,17.72,SSE,155,0.0,0.0,34,0.00,,---,0.00,VWS V13.00,2013-11-17 08:51:00,
2013-11-16 23:56:00,29.3,4.4,17.72,SSE,155,0.0,0.0,34,0.00,,---,0.00,VWS V13.00,2013-11-17 08:56:00,